Florence, Italy
Current Conditions -  °F | °C
As of 6:50 AM on Wednesday 22 Oct 2014 (Local Time) from LIRQ Reporting Station
Few Clouds Few Clouds  
Wind Chill: 66°   Ceiling: Unl
Heat Index: 66°   Visibility: 6mi
Dew Point: 25°   Wind: 16mph
Humidity: 21%   Direction: 340°NNW
Pressure: 29.65"   Gusts: NA
Location:  43.77°N, 11.26°E
Report Text: LIRQ 220450Z 34014KT 9999 FEW030 19/M04 Q1004
Loading
Personal Weather Stations






























Interactive Weather Map New forecast layout! Learn more

10-Day Weather Forecast

Advertisements
Track Severe Weather on mobile